Time;durP1;ratioP1;P1;durP2;ratioP2;P2;SDS_P1;SDS_P2;PMS_P1;PMS_P2;Temp;Humidity;BMP_temperature;BMP_pressure;BME280_temperature;BME280_humidity;BME280_pressure;Samples;Min_cycle;Max_cycle;Signal;HPM_P1;HPM_P2
2022/10/17 00:01:13;;;;;;;17.35;5.15;;;12.00;99.90;;;;;;5138137;27;20461;-78
2022/10/17 00:03:39;;;;;;;18.23;4.80;;;12.00;99.90;;;;;;5134189;27;20089;-77
2022/10/17 00:06:11;;;;;;;16.42;5.45;;;12.00;99.90;;;;;;5135161;27;20098;-78
2022/10/17 00:08:39;;;;;;;16.08;5.32;;;12.00;99.90;;;;;;5135849;27;20118;-76
2022/10/17 00:11:11;;;;;;;14.55;4.60;;;12.00;99.90;;;;;;5117950;27;20050;-77
2022/10/17 00:13:37;;;;;;;17.85;5.20;;;12.00;99.90;;;;;;5116686;27;20058;-78
2022/10/17 00:16:04;;;;;;;20.23;5.00;;;12.00;99.90;;;;;;5133635;27;20439;-76
2022/10/17 00:18:30;;;;;;;16.23;5.03;;;12.00;99.90;;;;;;5134722;27;20047;-77
2022/10/17 00:20:56;;;;;;;14.80;5.03;;;11.90;99.90;;;;;;5134789;27;20050;-77
2022/10/17 00:23:26;;;;;;;17.25;5.30;;;11.90;99.90;;;;;;5132872;27;20085;-77
2022/10/17 00:26:10;;;;;;;12.88;4.93;;;11.90;99.90;;;;;;5116026;27;20497;-76
2022/10/17 00:28:36;;;;;;;19.00;5.70;;;12.00;99.90;;;;;;5134133;27;20051;-78
2022/10/17 00:31:04;;;;;;;17.45;5.88;;;11.90;99.90;;;;;;5134265;27;20051;-76
2022/10/17 00:33:32;;;;;;;18.23;5.50;;;11.90;99.90;;;;;;5133362;27;20047;-77
2022/10/17 00:36:07;;;;;;;14.30;4.95;;;11.90;99.90;;;;;;5135584;27;20090;-77
2022/10/17 00:38:34;;;;;;;15.70;4.93;;;11.80;99.90;;;;;;5098972;27;20138;-76
2022/10/17 00:41:01;;;;;;;16.95;5.85;;;11.90;99.90;;;;;;5112041;28;20055;-79
2022/10/17 00:43:28;;;;;;;13.68;4.57;;;11.90;99.90;;;;;;5113548;28;20043;-78
2022/10/17 00:45:55;;;;;;;10.30;4.38;;;11.90;99.90;;;;;;5111984;28;20636;-79
2022/10/17 00:48:23;;;;;;;17.40;4.30;;;11.90;99.90;;;;;;5113250;28;20047;-77
2022/10/17 00:50:50;;;;;;;16.45;4.95;;;11.90;99.90;;;;;;5112040;28;20079;-78
2022/10/17 00:53:17;;;;;;;15.68;4.03;;;11.90;99.90;;;;;;5113213;28;20484;-78
2022/10/17 00:55:51;;;;;;;9.55;3.83;;;12.00;99.90;;;;;;5112076;28;20126;-77
2022/10/17 00:58:18;;;;;;;9.23;4.28;;;12.00;99.90;;;;;;5113329;28;20094;-77
2022/10/17 01:00:47;;;;;;;20.52;3.97;;;12.00;99.90;;;;;;5111899;28;20062;-77
2022/10/17 01:03:13;;;;;;;13.40;4.13;;;12.00;99.90;;;;;;5113188;28;20087;-77
2022/10/17 01:05:40;;;;;;;13.63;3.78;;;12.00;99.90;;;;;;5111768;28;20055;-77
2022/10/17 01:08:07;;;;;;;13.20;4.50;;;12.10;99.90;;;;;;5113127;28;20063;-77
2022/10/17 01:10:48;;;;;;;12.40;4.30;;;12.10;99.90;;;;;;5112980;28;20393;-78
2022/10/17 01:13:38;;;;;;;17.55;5.68;;;12.20;99.90;;;;;;5112941;28;20518;-77
2022/10/17 01:16:17;;;;;;;17.40;5.50;;;12.20;99.90;;;;;;5114641;28;20054;-79
2022/10/17 01:19:07;;;;;;;14.95;5.05;;;12.20;99.90;;;;;;5112222;28;20377;-78
2022/10/17 01:21:58;;;;;;;17.05;5.68;;;12.30;99.90;;;;;;5111996;28;20043;-79
2022/10/17 01:24:44;;;;;;;15.82;7.18;;;12.30;99.90;;;;;;5102782;28;20047;-77
2022/10/17 01:27:41;;;;;;;18.83;7.60;;;12.30;99.90;;;;;;5111100;28;20486;-77
2022/10/17 01:30:22;;;;;;;12.20;6.15;;;12.30;99.90;;;;;;5111478;28;20143;-78
2022/10/17 01:32:57;;;;;;;14.23;6.88;;;12.30;99.90;;;;;;5111260;28;20076;-77
2022/10/17 01:35:37;;;;;;;20.48;6.60;;;12.30;99.90;;;;;;5097620;28;20044;-78
2022/10/17 01:38:13;;;;;;;18.80;5.95;;;12.30;99.90;;;;;;5112474;28;20059;-77
2022/10/17 01:40:55;;;;;;;15.32;5.72;;;12.40;99.90;;;;;;5094176;28;20126;-77
2022/10/17 01:43:39;;;;;;;16.77;5.05;;;12.40;99.90;;;;;;5112141;28;20104;-77
2022/10/17 01:46:16;;;;;;;16.90;5.68;;;12.40;99.90;;;;;;5112338;28;20054;-77
2022/10/17 01:48:45;;;;;;;12.68;4.85;;;12.40;99.90;;;;;;5110995;28;20051;-77
2022/10/17 01:51:20;;;;;;;11.88;4.95;;;12.40;99.90;;;;;;5093759;28;20479;-79
2022/10/17 01:53:55;;;;;;;13.82;4.70;;;12.40;99.90;;;;;;5111207;28;20048;-77
2022/10/17 01:56:25;;;;;;;15.40;4.40;;;12.40;99.90;;;;;;5111731;28;20050;-79
2022/10/17 01:59:00;;;;;;;9.05;4.38;;;12.40;99.90;;;;;;5113297;28;20043;-77
2022/10/17 02:01:29;;;;;;;14.65;4.35;;;12.40;99.90;;;;;;5112184;28;20062;-76
2022/10/17 02:03:56;;;;;;;13.85;4.45;;;12.40;99.90;;;;;;5093553;28;20109;-76
2022/10/17 02:06:22;;;;;;;17.88;5.85;;;12.40;99.90;;;;;;5110711;28;20058;-76
2022/10/17 02:08:50;;;;;;;11.85;5.07;;;12.40;99.90;;;;;;5110538;28;20051;-76
2022/10/17 02:11:19;;;;;;;8.73;4.55;;;12.40;99.90;;;;;;5111890;28;20043;-78
2022/10/17 02:14:11;;;;;;;13.15;4.88;;;12.40;99.90;;;;;;5110515;28;20044;-77
2022/10/17 02:16:54;;;;;;;17.63;5.30;;;12.30;99.90;;;;;;5110993;28;20056;-76
2022/10/17 02:19:45;;;;;;;13.57;4.53;;;12.30;99.90;;;;;;5115160;28;20040;-76
2022/10/17 02:22:27;;;;;;;13.45;5.38;;;12.30;99.90;;;;;;5112577;28;20495;-78
2022/10/17 02:25:13;;;;;;;12.60;4.72;;;12.30;99.90;;;;;;5110328;28;20048;-77
2022/10/17 02:27:52;;;;;;;15.13;4.90;;;12.30;99.90;;;;;;5111705;28;20055;-77
2022/10/17 02:30:57;;;;;;;11.00;5.20;;;12.20;99.90;;;;;;5109959;28;20069;-79
2022/10/17 02:33:43;;;;;;;17.73;5.70;;;12.20;99.90;;;;;;5079272;28;20166;-78
2022/10/17 02:36:18;;;;;;;12.60;5.72;;;12.20;99.90;;;;;;5111466;28;20051;-76
2022/10/17 02:38:45;;;;;;;13.45;5.70;;;12.10;99.90;;;;;;5111578;28;20052;-77
2022/10/17 02:41:15;;;;;;;15.82;6.55;;;12.10;99.90;;;;;;5112428;28;20057;-78
2022/10/17 02:43:44;;;;;;;14.63;6.93;;;12.10;99.90;;;;;;5093497;28;20044;-77
2022/10/17 02:46:19;;;;;;;19.10;7.25;;;12.20;99.90;;;;;;5110134;28;20099;-77
2022/10/17 02:48:54;;;;;;;15.85;7.32;;;12.20;99.90;;;;;;5111172;28;20112;-77
2022/10/17 02:51:52;;;;;;;16.10;8.13;;;12.20;99.90;;;;;;5111342;28;20066;-78
2022/10/17 02:54:27;;;;;;;16.27;7.95;;;12.20;99.90;;;;;;5111118;28;20106;-78
2022/10/17 02:57:13;;;;;;;23.90;9.15;;;12.20;99.90;;;;;;5109701;28;20450;-77
2022/10/17 02:59:41;;;;;;;15.30;7.45;;;12.20;99.90;;;;;;5092701;28;20047;-77
2022/10/17 03:02:07;;;;;;;18.15;8.73;;;12.20;99.90;;;;;;5114213;28;20059;-77
2022/10/17 03:04:33;;;;;;;16.63;8.63;;;12.10;99.90;;;;;;5111351;28;20051;-77
2022/10/17 03:06:59;;;;;;;18.33;9.15;;;12.10;99.90;;;;;;5110975;28;20094;-75
2022/10/17 03:09:25;;;;;;;17.38;8.27;;;12.10;99.90;;;;;;5109864;28;20411;-78
2022/10/17 03:11:51;;;;;;;14.05;8.10;;;12.10;99.90;;;;;;5127248;28;20130;-78
2022/10/17 03:14:17;;;;;;;15.10;8.55;;;12.10;99.90;;;;;;5111653;28;20456;-77
2022/10/17 03:16:43;;;;;;;15.52;7.95;;;12.10;99.90;;;;;;5109994;28;20071;-77
2022/10/17 03:19:09;;;;;;;18.65;8.20;;;12.10;99.90;;;;;;5109583;28;20499;-77
2022/10/17 03:21:37;;;;;;;13.05;8.38;;;12.10;99.90;;;;;;5094116;28;20071;-77
2022/10/17 03:24:03;;;;;;;15.65;9.55;;;12.10;99.90;;;;;;5113058;28;20101;-79
2022/10/17 03:26:30;;;;;;;20.38;9.18;;;12.10;99.90;;;;;;5109692;28;20411;-77
2022/10/17 03:28:56;;;;;;;15.88;8.77;;;12.10;99.90;;;;;;5109478;28;20109;-78
2022/10/17 03:31:22;;;;;;;15.80;8.23;;;12.10;99.90;;;;;;5109638;28;20051;-76
2022/10/17 03:33:48;;;;;;;17.00;8.25;;;12.10;99.90;;;;;;5092980;28;20059;-77
2022/10/17 03:36:16;;;;;;;23.00;9.35;;;12.10;99.90;;;;;;5110983;28;20127;-79
2022/10/17 03:38:43;;;;;;;16.25;8.85;;;12.10;99.90;;;;;;5113758;28;20103;-76
2022/10/17 03:41:10;;;;;;;22.65;9.40;;;12.10;99.90;;;;;;5129830;27;20051;-78
2022/10/17 03:43:36;;;;;;;15.13;8.55;;;12.10;99.90;;;;;;5117294;27;20084;-78
2022/10/17 03:46:02;;;;;;;18.90;9.32;;;12.20;99.90;;;;;;5135247;27;20525;-77
2022/10/17 03:48:29;;;;;;;30.45;11.20;;;12.20;99.90;;;;;;5116504;27;20046;-77
2022/10/17 03:51:07;;;;;;;25.42;9.80;;;12.20;99.90;;;;;;5134830;27;20478;-77
2022/10/17 03:53:33;;;;;;;17.05;10.02;;;12.20;99.90;;;;;;5135200;27;20058;-78
2022/10/17 03:56:17;;;;;;;16.20;9.38;;;12.20;99.90;;;;;;5116389;27;20079;-78
2022/10/17 03:58:44;;;;;;;13.80;9.33;;;12.20;99.90;;;;;;5116266;27;20039;-76
2022/10/17 04:01:12;;;;;;;18.98;10.02;;;12.20;99.90;;;;;;5116653;27;20051;-76
2022/10/17 04:03:38;;;;;;;16.00;9.77;;;12.20;99.90;;;;;;5118284;27;20070;-76
2022/10/17 04:06:05;;;;;;;18.25;10.52;;;12.20;99.90;;;;;;5116162;27;20039;-77
2022/10/17 04:08:31;;;;;;;16.00;9.48;;;12.20;99.90;;;;;;5116427;27;20051;-76
2022/10/17 04:11:02;;;;;;;18.40;10.65;;;12.20;99.90;;;;;;5116316;27;20499;-78
2022/10/17 04:13:29;;;;;;;17.77;11.05;;;12.30;99.90;;;;;;5134716;27;20073;-77
2022/10/17 04:16:07;;;;;;;20.48;11.10;;;12.30;99.90;;;;;;5134747;27;20043;-77
2022/10/17 04:18:33;;;;;;;23.08;12.75;;;12.30;99.90;;;;;;5115963;27;20055;-78
2022/10/17 04:21:04;;;;;;;20.40;10.93;;;12.30;99.90;;;;;;5117480;27;20375;-76
2022/10/17 04:23:30;;;;;;;18.02;11.82;;;12.30;99.90;;;;;;5135925;27;20050;-77
2022/10/17 04:25:58;;;;;;;21.95;12.35;;;12.30;99.90;;;;;;5134430;27;20111;-78
2022/10/17 04:28:25;;;;;;;18.23;12.23;;;12.40;99.90;;;;;;5115955;27;20419;-78
2022/10/17 04:31:00;;;;;;;20.70;12.88;;;12.40;99.90;;;;;;5115688;27;20039;-77
2022/10/17 04:33:26;;;;;;;19.05;11.70;;;12.40;99.90;;;;;;5134530;27;20051;-79
2022/10/17 04:36:04;;;;;;;16.40;11.77;;;12.40;99.90;;;;;;5115729;27;20051;-77
2022/10/17 04:38:30;;;;;;;23.20;13.45;;;12.50;99.90;;;;;;5134447;27;20051;-79
2022/10/17 04:40:57;;;;;;;18.73;12.13;;;12.50;99.90;;;;;;5133846;27;20043;-78
2022/10/17 04:43:23;;;;;;;20.88;12.65;;;12.50;99.90;;;;;;5115892;27;20550;-78
2022/10/17 04:45:49;;;;;;;17.45;12.27;;;12.50;99.90;;;;;;5115837;27;20513;-77
2022/10/17 04:48:15;;;;;;;18.88;12.75;;;12.50;99.90;;;;;;5134828;27;20047;-78
2022/10/17 04:50:41;;;;;;;21.63;13.65;;;12.50;99.90;;;;;;5134949;27;20055;-78
2022/10/17 04:53:07;;;;;;;18.90;12.75;;;12.50;99.90;;;;;;5115811;27;20502;-78
2022/10/17 04:55:37;;;;;;;21.90;13.13;;;12.50;99.90;;;;;;5134121;27;20051;-79
2022/10/17 04:58:03;;;;;;;18.20;11.88;;;12.50;99.90;;;;;;5134086;27;20047;-79
2022/10/17 05:00:29;;;;;;;18.90;12.45;;;12.60;99.90;;;;;;5134404;27;20058;-77
2022/10/17 05:02:55;;;;;;;20.25;13.05;;;12.60;99.90;;;;;;5133587;27;20107;-79
2022/10/17 05:05:21;;;;;;;20.10;12.48;;;12.60;99.90;;;;;;5133929;27;20044;-78
2022/10/17 05:07:46;;;;;;;20.08;12.25;;;12.60;99.90;;;;;;5116661;27;20767;-77
2022/10/17 05:10:12;;;;;;;19.50;12.98;;;12.60;99.90;;;;;;5116026;27;20147;-79
2022/10/17 05:12:38;;;;;;;21.58;12.75;;;12.60;99.90;;;;;;5133787;27;20476;-77
2022/10/17 05:15:05;;;;;;;25.00;15.05;;;12.70;99.90;;;;;;5133960;27;20382;-79
2022/10/17 05:17:30;;;;;;;23.50;13.82;;;12.70;99.90;;;;;;5133576;27;20063;-76
2022/10/17 05:19:56;;;;;;;21.90;13.90;;;12.70;99.90;;;;;;5115103;27;20131;-77
2022/10/17 05:22:22;;;;;;;25.25;15.32;;;12.70;99.90;;;;;;5133225;27;20090;-78
2022/10/17 05:24:48;;;;;;;21.27;15.07;;;12.70;99.90;;;;;;5115292;27;20058;-78
2022/10/17 05:27:14;;;;;;;21.65;15.13;;;12.80;99.90;;;;;;5134355;27;20055;-77
2022/10/17 05:29:40;;;;;;;21.42;14.68;;;12.80;99.90;;;;;;5116999;27;20122;-78
2022/10/17 05:32:06;;;;;;;22.85;13.88;;;12.80;99.90;;;;;;5133555;27;20103;-78
2022/10/17 05:34:33;;;;;;;20.70;15.45;;;12.80;99.90;;;;;;5134016;27;20055;-78
2022/10/17 05:36:59;;;;;;;24.80;15.57;;;12.80;99.90;;;;;;5115549;27;20111;-77
2022/10/17 05:39:25;;;;;;;23.08;15.73;;;12.90;99.90;;;;;;5114663;27;20130;-75
2022/10/17 05:41:51;;;;;;;23.20;15.85;;;12.90;99.90;;;;;;5114043;27;20526;-75
2022/10/17 05:44:17;;;;;;;24.27;14.98;;;12.90;99.90;;;;;;5132966;27;20051;-76
2022/10/17 05:46:43;;;;;;;25.48;15.07;;;12.90;99.90;;;;;;5097439;27;20047;-76
2022/10/17 05:49:10;;;;;;;24.90;15.00;;;12.90;99.90;;;;;;5132940;27;20062;-76
2022/10/17 05:51:35;;;;;;;27.05;17.38;;;12.90;99.90;;;;;;5098468;27;20445;-75
2022/10/17 05:54:04;;;;;;;25.05;16.02;;;12.90;99.90;;;;;;5132693;27;20039;-77
2022/10/17 05:56:30;;;;;;;28.02;16.92;;;13.00;99.90;;;;;;5114806;27;20444;-76
2022/10/17 05:58:56;;;;;;;27.92;17.83;;;13.00;99.90;;;;;;5114236;27;20192;-75
2022/10/17 06:01:23;;;;;;;21.48;16.55;;;13.00;99.90;;;;;;5096281;27;20074;-76
2022/10/17 06:03:49;;;;;;;26.15;17.33;;;13.00;99.90;;;;;;5114466;27;20122;-76
2022/10/17 06:06:16;;;;;;;28.38;17.58;;;13.00;99.90;;;;;;5132394;27;20043;-76
2022/10/17 06:08:42;;;;;;;24.60;16.83;;;13.00;99.90;;;;;;5132705;27;20043;-76
2022/10/17 06:11:09;;;;;;;27.35;17.65;;;13.00;99.90;;;;;;5081188;27;20114;-75
2022/10/17 06:13:35;;;;;;;28.23;18.17;;;13.00;99.90;;;;;;5115485;27;20620;-76
2022/10/17 06:16:00;;;;;;;28.25;18.30;;;13.00;99.90;;;;;;5114179;27;20129;-75
2022/10/17 06:18:26;;;;;;;33.50;20.48;;;13.10;99.90;;;;;;5132603;27;20047;-75
2022/10/17 06:20:52;;;;;;;33.08;20.17;;;13.10;99.90;;;;;;5133848;27;20043;-75
2022/10/17 06:23:18;;;;;;;27.50;17.95;;;13.20;99.90;;;;;;5114424;27;20169;-77
2022/10/17 06:25:44;;;;;;;27.27;19.08;;;13.20;99.90;;;;;;5114629;27;20047;-77
2022/10/17 06:28:10;;;;;;;31.50;19.45;;;13.20;99.90;;;;;;5132001;27;20518;-76
2022/10/17 06:30:40;;;;;;;31.40;19.77;;;13.20;99.90;;;;;;5113354;27;20499;-79
2022/10/17 06:33:06;;;;;;;32.53;18.80;;;13.30;99.90;;;;;;5097001;27;20054;-77
2022/10/17 06:35:32;;;;;;;27.40;20.27;;;13.30;99.90;;;;;;5113268;27;20043;-76
2022/10/17 06:37:58;;;;;;;33.53;20.90;;;13.40;99.90;;;;;;5131875;27;20062;-77
2022/10/17 06:40:24;;;;;;;32.65;20.45;;;13.40;99.90;;;;;;5094319;28;20148;-77
2022/10/17 06:42:50;;;;;;;29.60;19.15;;;13.50;99.90;;;;;;5110145;28;20081;-76
2022/10/17 06:45:15;;;;;;;28.38;19.17;;;13.50;99.90;;;;;;5111466;28;20075;-77
2022/10/17 06:47:41;;;;;;;33.65;21.80;;;13.50;99.90;;;;;;5110434;28;20060;-77
2022/10/17 06:50:07;;;;;;;30.25;20.13;;;13.50;99.90;;;;;;5110049;28;20048;-77
2022/10/17 06:52:33;;;;;;;29.10;18.52;;;13.50;99.90;;;;;;5110111;28;20059;-77
2022/10/17 06:54:59;;;;;;;29.80;19.30;;;13.60;99.90;;;;;;5110259;28;20051;-77
2022/10/17 06:57:26;;;;;;;25.27;18.23;;;13.60;99.90;;;;;;5111154;28;20048;-76
2022/10/17 06:59:53;;;;;;;28.58;18.02;;;13.60;99.90;;;;;;5095884;28;20051;-77
2022/10/17 07:02:19;;;;;;;26.23;18.23;;;13.60;99.90;;;;;;5076218;28;20070;-77
2022/10/17 07:04:46;;;;;;;28.00;18.00;;;13.60;99.90;;;;;;5111153;28;20487;-76
2022/10/17 07:07:12;;;;;;;24.33;18.05;;;13.70;99.90;;;;;;5111251;28;20083;-76
2022/10/17 07:09:38;;;;;;;26.02;17.52;;;13.70;99.90;;;;;;5092723;28;20102;-76
2022/10/17 07:12:06;;;;;;;25.42;18.35;;;13.70;99.90;;;;;;5111451;28;20101;-75
2022/10/17 07:14:33;;;;;;;27.15;17.58;;;13.70;99.90;;;;;;5114034;28;20067;-77
2022/10/17 07:16:59;;;;;;;29.38;18.45;;;13.80;99.90;;;;;;5115556;28;20062;-76
2022/10/17 07:19:28;;;;;;;29.75;18.63;;;13.80;99.90;;;;;;5117308;28;20392;-77
2022/10/17 07:21:54;;;;;;;22.95;17.10;;;13.90;99.90;;;;;;5117647;28;20100;-77
2022/10/17 07:24:20;;;;;;;29.05;17.52;;;13.90;99.90;;;;;;5115204;28;20051;-75
2022/10/17 07:26:46;;;;;;;27.92;17.85;;;14.00;99.90;;;;;;5116126;28;20052;-78
2022/10/17 07:29:12;;;;;;;26.15;16.30;;;14.10;99.90;;;;;;5113677;28;20059;-79
2022/10/17 07:31:38;;;;;;;26.55;16.80;;;14.10;99.90;;;;;;5113574;28;20055;-77
2022/10/17 07:34:04;;;;;;;24.75;17.05;;;14.20;99.90;;;;;;5114752;28;20044;-78
2022/10/17 07:36:30;;;;;;;23.98;17.27;;;14.30;99.90;;;;;;5114559;28;20055;-78
2022/10/17 07:38:56;;;;;;;25.45;16.33;;;14.40;99.90;;;;;;5115208;27;20043;-78
2022/10/17 07:41:22;;;;;;;23.75;15.90;;;14.40;99.90;;;;;;5130901;27;20400;-77
2022/10/17 07:43:48;;;;;;;28.05;17.15;;;14.50;99.90;;;;;;5119754;27;20697;-78
2022/10/17 07:46:14;;;;;;;22.08;15.90;;;14.50;99.90;;;;;;5117208;27;20047;-78
2022/10/17 07:48:40;;;;;;;25.13;15.80;;;14.60;99.90;;;;;;5116259;27;20516;-77
2022/10/17 07:51:08;;;;;;;19.52;14.25;;;14.60;99.90;;;;;;5135295;27;20047;-80
2022/10/17 07:53:38;;;;;;;22.50;15.45;;;14.70;99.90;;;;;;5116717;27;20143;-78
2022/10/17 07:56:07;;;;;;;22.23;14.25;;;14.70;99.90;;;;;;5099547;27;20055;-79
2022/10/17 07:58:33;;;;;;;20.27;14.60;;;14.80;99.90;;;;;;5116891;27;20055;-77
2022/10/17 08:01:04;;;;;;;24.00;14.93;;;14.80;99.90;;;;;;5136165;27;20047;-77
2022/10/17 08:03:30;;;;;;;22.48;14.77;;;14.90;99.90;;;;;;5137312;27;20080;-76
2022/10/17 08:06:00;;;;;;;24.92;13.55;;;15.00;99.90;;;;;;5135241;27;20044;-79
2022/10/17 08:08:26;;;;;;;18.02;12.23;;;15.00;99.90;;;;;;5116636;27;20681;-78
2022/10/17 08:10:53;;;;;;;25.45;14.15;;;15.10;99.90;;;;;;5134564;27;20043;-76
2022/10/17 08:13:21;;;;;;;21.20;13.70;;;15.10;99.90;;;;;;5116134;27;20111;-78
2022/10/17 08:15:47;;;;;;;17.67;13.13;;;15.10;99.90;;;;;;5116370;27;20058;-76
2022/10/17 08:18:14;;;;;;;20.80;13.77;;;15.20;99.90;;;;;;5119432;27;20051;-79
2022/10/17 08:20:41;;;;;;;19.40;12.45;;;15.20;99.90;;;;;;5116397;27;20051;-79
2022/10/17 08:23:07;;;;;;;18.25;12.75;;;15.30;99.90;;;;;;5134335;27;20047;-78
2022/10/17 08:25:32;;;;;;;22.88;13.52;;;15.30;99.90;;;;;;5135001;27;20039;-77
2022/10/17 08:27:58;;;;;;;20.92;12.32;;;15.40;99.90;;;;;;5134336;27;20055;-78
2022/10/17 08:30:24;;;;;;;19.67;11.52;;;15.40;99.90;;;;;;5134753;27;20130;-78
2022/10/17 08:32:50;;;;;;;17.13;10.63;;;15.50;99.90;;;;;;5115728;27;20062;-77
2022/10/17 08:35:16;;;;;;;16.88;10.80;;;15.60;99.90;;;;;;5133990;27;20064;-79
2022/10/17 08:37:43;;;;;;;19.52;11.85;;;15.60;99.90;;;;;;5129269;27;20138;-77
2022/10/17 08:40:19;;;;;;;18.60;11.27;;;15.70;99.90;;;;;;5130565;27;20392;-77
2022/10/17 08:43:07;;;;;;;16.33;9.63;;;15.70;99.90;;;;;;5137019;27;20054;-76
2022/10/17 08:45:56;;;;;;;21.45;10.02;;;15.80;99.90;;;;;;5115650;27;20062;-77
2022/10/17 08:48:27;;;;;;;14.40;9.77;;;15.90;99.90;;;;;;5104352;27;20089;-77
2022/10/17 08:50:58;;;;;;;15.35;9.95;;;16.00;99.90;;;;;;5098334;27;20521;-78
2022/10/17 08:53:46;;;;;;;14.95;9.45;;;16.10;99.90;;;;;;5134324;27;20099;-77
2022/10/17 08:56:33;;;;;;;17.60;8.15;;;16.10;99.90;;;;;;5098406;27;20551;-80
2022/10/17 08:58:59;;;;;;;21.52;10.02;;;16.20;99.90;;;;;;5114921;27;20138;-77
2022/10/17 09:01:37;;;;;;;12.25;8.25;;;16.30;99.90;;;;;;5133823;27;20130;-77
2022/10/17 09:04:44;;;;;;;14.50;9.23;;;16.30;99.90;;;;;;5115547;27;20070;-77
2022/10/17 09:07:34;;;;;;;14.60;8.65;;;16.40;99.90;;;;;;5115763;27;20043;-80
2022/10/17 09:10:32;;;;;;;13.27;8.68;;;16.40;99.90;;;;;;5133927;27;20035;-80
2022/10/17 09:13:24;;;;;;;18.25;8.43;;;16.40;99.90;;;;;;5115285;27;20142;-77
2022/10/17 09:16:33;;;;;;;13.48;8.77;;;16.40;99.90;;;;;;5109239;27;20043;-76
2022/10/17 09:19:06;;;;;;;13.82;9.45;;;16.40;99.90;;;;;;5107048;27;20043;-78
2022/10/17 09:21:52;;;;;;;14.15;10.00;;;16.40;99.90;;;;;;5133429;27;20054;-77
2022/10/17 09:24:37;;;;;;;15.30;9.55;;;16.40;99.90;;;;;;5133523;27;20576;-77
2022/10/17 09:27:03;;;;;;;;;;;16.40;99.90;;;;;;5116222;27;20078;-77
2022/10/17 09:29:29;;;;;;;17.73;10.13;;;16.30;99.90;;;;;;5136495;27;20298;-77
2022/10/17 09:32:16;;;;;;;23.63;10.73;;;16.30;99.90;;;;;;5136424;27;20104;-79
2022/10/17 09:34:42;;;;;;;17.77;10.25;;;16.20;99.90;;;;;;5133409;27;20047;-79
2022/10/17 09:37:14;;;;;;;15.52;11.32;;;16.20;99.90;;;;;;5114905;27;20622;-78
2022/10/17 09:39:41;;;;;;;16.05;10.65;;;16.20;99.90;;;;;;5132568;27;20090;-77
2022/10/17 09:42:12;;;;;;;18.65;12.23;;;16.20;99.90;;;;;;5110788;28;20445;-80
2022/10/17 09:44:53;;;;;;;18.08;11.68;;;16.10;99.90;;;;;;5111338;28;20043;-77
2022/10/17 09:47:28;;;;;;;17.83;11.25;;;16.10;99.90;;;;;;5111228;28;20067;-80
2022/10/17 09:49:54;;;;;;;18.80;11.48;;;16.10;99.90;;;;;;5112256;28;20091;-77
2022/10/17 09:52:35;;;;;;;20.35;11.63;;;16.10;99.90;;;;;;5093793;28;20560;-80
2022/10/17 09:55:16;;;;;;;19.63;11.98;;;16.10;99.90;;;;;;5110966;28;20070;-77
2022/10/17 09:57:52;;;;;;;18.17;12.63;;;16.00;99.90;;;;;;5097029;28;20048;-79
2022/10/17 10:00:28;;;;;;;17.65;11.32;;;16.00;99.90;;;;;;5112292;27;20063;-79
2022/10/17 10:03:24;;;;;;;16.70;11.55;;;16.00;99.90;;;;;;5110796;28;20051;-78
2022/10/17 10:06:01;;;;;;;20.17;12.13;;;15.90;99.90;;;;;;5093672;28;20062;-80
2022/10/17 10:08:36;;;;;;;19.75;11.77;;;15.90;99.90;;;;;;5112221;27;20431;-78
2022/10/17 10:11:05;;;;;;;20.63;11.82;;;15.90;99.90;;;;;;5111743;28;20051;-80
2022/10/17 10:13:33;;;;;;;22.10;11.95;;;15.90;99.90;;;;;;5111583;28;20047;-78
2022/10/17 10:16:30;;;;;;;18.88;11.70;;;15.90;99.90;;;;;;5110801;28;20530;-77
2022/10/17 10:18:57;;;;;;;27.10;12.80;;;16.00;99.90;;;;;;5111728;28;20052;-78
2022/10/17 10:21:25;;;;;;;21.85;13.23;;;16.00;99.90;;;;;;5110828;28;20039;-77
2022/10/17 10:24:07;;;;;;;19.10;12.48;;;15.90;99.90;;;;;;5110489;28;20047;-76
2022/10/17 10:26:39;;;;;;;20.10;11.73;;;15.90;99.90;;;;;;5110237;28;20051;-77
2022/10/17 10:29:29;;;;;;;26.05;14.00;;;15.90;99.90;;;;;;5111483;28;20047;-78
2022/10/17 10:32:05;;;;;;;28.83;14.05;;;15.90;99.90;;;;;;5111761;28;20055;-78
2022/10/17 10:34:34;;;;;;;26.27;13.50;;;15.90;99.90;;;;;;5111390;28;20063;-77
2022/10/17 10:37:04;;;;;;;24.73;13.45;;;15.90;99.90;;;;;;5110698;28;20050;-77
2022/10/17 10:39:51;;;;;;;23.45;13.25;;;15.90;99.90;;;;;;5111635;28;20048;-78
2022/10/17 10:42:26;;;;;;;21.15;12.00;;;15.90;99.90;;;;;;5091447;28;20052;-79
2022/10/17 10:44:56;;;;;;;22.13;14.32;;;15.90;99.90;;;;;;5090061;28;20051;-79
2022/10/17 10:47:30;;;;;;;21.60;12.93;;;16.00;99.90;;;;;;5090581;28;20048;-80
2022/10/17 10:50:16;;;;;;;18.85;12.93;;;15.90;99.90;;;;;;5091091;28;20044;-80
2022/10/17 10:53:00;;;;;;;22.40;14.68;;;16.00;99.90;;;;;;5089906;28;20399;-80
2022/10/17 10:55:32;;;;;;;21.38;13.55;;;16.00;99.90;;;;;;5091061;28;20123;-80
2022/10/17 10:58:03;;;;;;;22.17;13.27;;;16.00;99.90;;;;;;5090123;28;20063;-77
2022/10/17 11:00:32;;;;;;;21.63;14.00;;;16.00;99.90;;;;;;5091195;28;20113;-79
2022/10/17 11:03:25;;;;;;;22.65;13.27;;;16.10;99.90;;;;;;5090853;28;20155;-78
2022/10/17 11:06:15;;;;;;;27.15;13.32;;;16.10;99.90;;;;;;5089659;28;20063;-79
2022/10/17 11:09:07;;;;;;;21.25;13.50;;;16.20;99.90;;;;;;5090913;28;20467;-79
2022/10/17 11:11:47;;;;;;;22.67;13.25;;;16.20;99.90;;;;;;5079318;28;20047;-80
2022/10/17 11:14:18;;;;;;;23.08;13.52;;;16.20;99.90;;;;;;5106371;28;20515;-81
2022/10/17 11:16:44;;;;;;;22.40;14.00;;;16.20;99.90;;;;;;5089459;28;20048;-78
2022/10/17 11:19:32;;;;;;;18.48;11.93;;;16.20;99.90;;;;;;5089343;28;20058;-78
2022/10/17 11:22:27;;;;;;;20.23;11.85;;;16.20;99.90;;;;;;5091641;28;20177;-78
2022/10/17 11:25:10;;;;;;;22.98;12.20;;;16.20;99.90;;;;;;5087665;28;20055;-80
2022/10/17 11:27:37;;;;;;;21.23;12.68;;;16.20;99.90;;;;;;5107103;28;20062;-81
2022/10/17 11:30:04;;;;;;;27.15;12.38;;;16.20;99.90;;;;;;5091024;28;20063;-77
2022/10/17 11:32:43;;;;;;;21.23;12.52;;;16.20;99.90;;;;;;5090696;28;20104;-76
2022/10/17 11:35:30;;;;;;;20.00;12.77;;;16.20;99.90;;;;;;5090477;28;20511;-78
2022/10/17 11:38:02;;;;;;;19.10;11.57;;;16.20;99.90;;;;;;5089553;28;20087;-78
2022/10/17 11:40:35;;;;;;;20.85;13.80;;;16.20;99.90;;;;;;5114258;28;20055;-77
2022/10/17 11:43:09;;;;;;;15.82;11.52;;;16.20;99.90;;;;;;5113085;28;20099;-76
2022/10/17 11:45:42;;;;;;;20.20;13.48;;;16.20;99.90;;;;;;5113222;28;20134;-77
2022/10/17 11:48:22;;;;;;;18.55;12.00;;;16.20;99.90;;;;;;5112852;28;20047;-77
2022/10/17 11:50:56;;;;;;;16.55;11.68;;;16.20;99.90;;;;;;5113205;28;20086;-78
2022/10/17 11:53:27;;;;;;;18.95;11.27;;;16.20;99.90;;;;;;5131205;28;20108;-79
2022/10/17 11:55:57;;;;;;;13.95;9.35;;;16.20;99.90;;;;;;5131671;28;20089;-78
2022/10/17 11:58:31;;;;;;;14.88;9.60;;;16.10;99.90;;;;;;5131974;27;20050;-79
2022/10/17 12:01:59;;;;;;;18.00;10.98;;;16.10;99.90;;;;;;5117042;27;20448;-77
2022/10/17 12:04:39;;;;;;;20.30;11.13;;;16.10;99.90;;;;;;5054609;28;20044;-76
2022/10/17 12:07:21;;;;;;;17.45;11.20;;;16.10;99.90;;;;;;5071497;28;20052;-75
2022/10/17 12:10:19;;;;;;;18.50;11.40;;;16.20;99.90;;;;;;5096589;27;20511;-76
2022/10/17 12:12:47;;;;;;;16.10;11.20;;;16.30;99.90;;;;;;5121241;27;20047;-78
2022/10/17 12:15:12;;;;;;;20.42;12.40;;;16.30;99.90;;;;;;5116617;27;20047;-77
2022/10/17 12:17:45;;;;;;;19.42;11.52;;;16.30;99.90;;;;;;5116336;27;20574;-78
2022/10/17 12:20:23;;;;;;;16.88;11.05;;;16.30;99.90;;;;;;5116267;27;20062;-79
2022/10/17 12:22:51;;;;;;;16.95;10.30;;;16.40;99.90;;;;;;5116234;27;20507;-78
2022/10/17 12:25:28;;;;;;;16.20;11.15;;;16.40;99.90;;;;;;5117270;27;20360;-78
2022/10/17 12:28:16;;;;;;;14.82;10.60;;;16.40;99.90;;;;;;5101233;27;20059;-77
2022/10/17 12:30:51;;;;;;;17.67;10.13;;;16.30;99.90;;;;;;5134328;27;20134;-78
2022/10/17 12:33:21;;;;;;;15.02;10.90;;;16.30;99.90;;;;;;5117085;27;20066;-77
2022/10/17 12:35:50;;;;;;;16.23;11.18;;;16.30;99.90;;;;;;5134595;27;20043;-78
2022/10/17 12:38:26;;;;;;;18.20;11.00;;;16.20;99.90;;;;;;5115407;27;20058;-77
2022/10/17 12:40:54;;;;;;;17.00;10.23;;;16.10;99.90;;;;;;5115326;27;20051;-78
2022/10/17 12:43:26;;;;;;;9.57;6.90;;;16.10;99.90;;;;;;5117521;27;20047;-77
2022/10/17 12:45:54;;;;;;;12.57;7.40;;;16.00;99.90;;;;;;5116459;27;20051;-80
2022/10/17 12:48:33;;;;;;;15.30;9.00;;;16.00;99.90;;;;;;5115319;27;20138;-80
2022/10/17 12:51:13;;;;;;;14.85;8.82;;;16.00;99.90;;;;;;5134208;27;20051;-77
2022/10/17 12:53:48;;;;;;;14.55;8.18;;;16.00;99.90;;;;;;5115751;27;20139;-77
2022/10/17 12:56:18;;;;;;;;;;;16.00;99.90;;;;;;5098800;27;20051;-77